createdAt,value
2022-11-01T00:01:06.209Z,6.30
2022-11-01T00:03:54.131Z,6.30
2022-11-01T00:06:41.413Z,6.47
2022-11-01T00:09:28.877Z,7.32
2022-11-01T00:12:16.538Z,6.63
2022-11-01T00:15:05.741Z,6.50
2022-11-01T00:17:52.847Z,5.72
2022-11-01T00:20:40.430Z,6.43
2022-11-01T00:23:28.301Z,6.97
2022-11-01T00:26:18.323Z,7.20
2022-11-01T00:29:06.096Z,7.60
2022-11-01T00:31:54.833Z,7.82
2022-11-01T00:34:42.483Z,7.20
2022-11-01T00:37:30.088Z,6.95
2022-11-01T00:40:17.852Z,6.40
2022-11-01T00:43:05.608Z,6.57
2022-11-01T00:45:53.093Z,6.70
2022-11-01T00:48:42.015Z,6.90
2022-11-01T00:51:29.905Z,6.63
2022-11-01T00:54:17.108Z,6.20
2022-11-01T00:57:04.260Z,6.32
2022-11-01T01:02:44.638Z,7.35
2022-11-01T01:05:33.987Z,6.65
2022-11-01T01:08:21.639Z,6.40
2022-11-01T01:11:08.746Z,5.95
2022-11-01T01:13:56.282Z,6.35
2022-11-01T01:16:43.916Z,6.35
2022-11-01T01:19:31.646Z,6.85
2022-11-01T01:22:20.218Z,7.00
2022-11-01T01:25:08.658Z,6.38
2022-11-01T01:27:56.588Z,5.80
2022-11-01T01:30:44.024Z,6.60
2022-11-01T01:33:32.528Z,5.85
2022-11-01T01:36:20.289Z,6.00
2022-11-01T01:39:10.160Z,6.38
2022-11-01T01:41:57.769Z,5.78
2022-11-01T01:45:20.472Z,6.20
2022-11-01T01:48:14.140Z,6.28
2022-11-01T01:51:05.822Z,6.43
2022-11-01T01:53:56.196Z,7.38
2022-11-01T01:56:45.069Z,6.93
2022-11-01T01:59:33.639Z,5.95
2022-11-01T02:02:22.243Z,6.97
2022-11-01T02:05:17.175Z,6.60
2022-11-01T02:08:06.820Z,6.70
2022-11-01T02:10:55.583Z,6.28
2022-11-01T02:13:45.238Z,6.15
2022-11-01T02:16:48.352Z,6.53
2022-11-01T02:20:14.549Z,6.77
2022-11-01T02:23:45.134Z,6.47
2022-11-01T02:26:54.790Z,6.65
2022-11-01T02:30:04.836Z,5.95
2022-11-01T02:33:09.643Z,6.15
2022-11-01T02:36:05.193Z,6.33
2022-11-01T02:38:58.958Z,6.35
2022-11-01T02:41:52.357Z,6.05
2022-11-01T02:44:44.466Z,6.85
2022-11-01T02:47:33.769Z,6.07
2022-11-01T02:50:23.025Z,5.50
2022-11-01T02:53:11.005Z,6.78
2022-11-01T02:55:58.316Z,5.93
2022-11-01T02:58:47.197Z,6.20
2022-11-01T03:01:36.743Z,7.47
2022-11-01T03:04:24.940Z,5.33
2022-11-01T03:07:16.612Z,6.22
2022-11-01T03:10:04.392Z,6.60
2022-11-01T03:13:02.527Z,6.15
2022-11-01T03:15:58.190Z,6.55
2022-11-01T03:18:54.769Z,6.07
2022-11-01T03:21:48.742Z,6.05
2022-11-01T03:24:46.690Z,6.80
2022-11-01T03:27:38.904Z,6.25
2022-11-01T03:30:26.229Z,6.88
2022-11-01T03:33:16.639Z,6.90
2022-11-01T03:36:13.473Z,6.50
2022-11-01T03:39:06.324Z,5.55
2022-11-01T03:42:01.278Z,5.85
2022-11-01T03:44:53.639Z,5.90
2022-11-01T03:47:40.707Z,5.83
2022-11-01T03:50:29.842Z,5.80
2022-11-01T03:53:17.543Z,5.70
2022-11-01T03:56:05.128Z,5.82
2022-11-01T03:58:54.187Z,6.32
2022-11-01T04:01:41.536Z,6.70
2022-11-01T04:04:28.829Z,7.10
2022-11-01T04:07:15.913Z,6.30
2022-11-01T04:10:03.298Z,6.40
2022-11-01T04:12:51.789Z,5.22
2022-11-01T04:15:57.632Z,6.40
2022-11-01T04:19:02.170Z,5.38
2022-11-01T04:21:49.479Z,5.78
2022-11-01T04:24:37.175Z,6.72
2022-11-01T04:27:24.471Z,5.90
2022-11-01T04:30:13.220Z,6.60
2022-11-01T04:33:02.054Z,6.22
2022-11-01T04:35:50.160Z,6.40
2022-11-01T04:38:37.448Z,6.43
2022-11-01T04:41:26.431Z,6.82
2022-11-01T04:44:13.778Z,6.30
2022-11-01T04:47:01.335Z,6.43
2022-11-01T04:49:50.175Z,6.30
2022-11-01T04:52:37.933Z,6.03
2022-11-01T04:55:25.313Z,6.00
2022-11-01T04:58:14.420Z,6.27
2022-11-01T05:01:06.000Z,6.30
2022-11-01T05:03:53.511Z,5.88
2022-11-01T05:06:42.122Z,5.78
2022-11-01T05:09:31.172Z,6.18
2022-11-01T05:12:19.391Z,5.90
2022-11-01T05:15:08.632Z,6.55
2022-11-01T05:17:56.980Z,5.95
2022-11-01T05:20:44.021Z,5.80
2022-11-01T05:23:32.946Z,5.60
2022-11-01T05:26:21.150Z,5.43
2022-11-01T05:29:23.907Z,4.28
2022-11-01T05:32:12.243Z,3.65
2022-11-01T05:34:59.768Z,3.50
2022-11-01T05:37:47.305Z,3.17
2022-11-01T05:40:35.892Z,3.50
2022-11-01T05:43:23.400Z,3.00
2022-11-01T05:46:10.349Z,3.33
2022-11-01T05:48:58.316Z,3.05
2022-11-01T05:51:46.012Z,3.10
2022-11-01T05:54:33.547Z,3.17
2022-11-01T05:57:22.347Z,2.80
2022-11-01T06:00:10.883Z,3.53
2022-11-01T06:03:02.071Z,3.25
2022-11-01T06:05:49.851Z,3.20
2022-11-01T06:08:38.939Z,2.70
2022-11-01T06:11:26.978Z,3.03
2022-11-01T06:14:15.899Z,3.25
2022-11-01T06:17:03.181Z,3.22
2022-11-01T06:19:50.846Z,3.17
2022-11-01T06:22:37.813Z,3.30
2022-11-01T06:25:26.375Z,3.60
2022-11-01T06:28:13.694Z,2.70
2022-11-01T06:33:50.927Z,2.83
2022-11-01T06:36:38.388Z,2.73
2022-11-01T06:39:25.807Z,3.20
2022-11-01T06:42:12.947Z,2.58
2022-11-01T06:45:00.096Z,2.97
2022-11-01T06:47:49.725Z,2.83
2022-11-01T06:50:37.082Z,2.40
2022-11-01T06:53:24.754Z,2.35
2022-11-01T06:56:12.177Z,2.80
2022-11-01T06:59:00.387Z,2.50
2022-11-01T07:01:47.989Z,2.40
2022-11-01T07:04:37.422Z,2.20
2022-11-01T07:07:24.795Z,2.30
2022-11-01T07:10:12.268Z,2.30
2022-11-01T07:13:00.240Z,2.55
2022-11-01T07:15:47.860Z,2.40
2022-11-01T07:18:35.599Z,2.70
2022-11-01T07:21:24.123Z,2.53
2022-11-01T07:24:11.664Z,2.33
2022-11-01T07:26:59.099Z,2.10
2022-11-01T07:29:46.213Z,2.13
2022-11-01T07:32:37.616Z,2.80
2022-11-01T07:35:28.305Z,2.40
2022-11-01T07:38:17.698Z,2.47
2022-11-01T07:41:06.556Z,2.47
2022-11-01T07:43:55.066Z,2.80
2022-11-01T07:46:42.228Z,2.60
2022-11-01T07:49:29.794Z,2.75
2022-11-01T07:52:17.984Z,2.30
2022-11-01T07:55:07.942Z,2.35
2022-11-01T07:57:55.385Z,2.20
2022-11-01T08:00:45.129Z,2.90
2022-11-01T08:03:32.771Z,2.00
2022-11-01T08:09:08.143Z,1.90
2022-11-01T08:11:57.263Z,2.13
2022-11-01T08:14:45.188Z,2.40
2022-11-01T08:17:32.736Z,2.47
2022-11-01T08:20:20.463Z,2.42
2022-11-01T08:23:08.144Z,1.70
2022-11-01T08:25:55.853Z,2.05
2022-11-01T08:28:44.692Z,1.90
2022-11-01T08:31:32.175Z,2.33
2022-11-01T08:34:19.138Z,1.77
2022-11-01T08:37:07.153Z,2.20
2022-11-01T08:39:55.177Z,2.20
2022-11-01T08:42:42.249Z,2.40
2022-11-01T08:45:31.421Z,2.05
2022-11-01T08:48:24.553Z,2.22
2022-11-01T08:51:12.228Z,2.03
2022-11-01T08:53:59.832Z,1.90
2022-11-01T08:56:47.409Z,1.90
2022-11-01T08:59:34.445Z,1.50
2022-11-01T09:02:23.942Z,1.60
2022-11-01T09:05:11.817Z,0.95
2022-11-01T09:08:00.160Z,1.00
2022-11-01T09:10:47.964Z,0.90
2022-11-01T09:13:35.459Z,0.70
2022-11-01T09:16:22.971Z,0.77
2022-11-01T09:19:12.075Z,0.70
2022-11-01T09:21:59.391Z,0.60
2022-11-01T09:24:47.000Z,0.60
2022-11-01T09:27:34.403Z,0.90
2022-11-01T09:30:21.874Z,0.70
2022-11-01T09:33:09.593Z,0.88
2022-11-01T09:35:59.754Z,0.52
2022-11-01T09:38:47.413Z,0.50
2022-11-01T09:41:39.111Z,0.70
2022-11-01T09:44:31.566Z,0.73
2022-11-01T09:47:22.249Z,0.80
2022-11-01T09:50:18.411Z,0.47
2022-11-01T09:53:15.178Z,0.80
2022-11-01T09:56:10.425Z,0.50
2022-11-01T09:59:05.187Z,0.60
2022-11-01T10:02:08.765Z,0.90
2022-11-01T10:05:18.835Z,0.85
2022-11-01T10:08:19.120Z,0.50
2022-11-01T10:11:26.954Z,0.60
2022-11-01T10:14:32.511Z,1.10
2022-11-01T10:17:30.362Z,0.68
2022-11-01T10:20:18.592Z,0.63
2022-11-01T10:23:09.429Z,0.70
2022-11-01T10:25:57.132Z,0.60
2022-11-01T10:28:51.081Z,0.80
2022-11-01T10:31:45.155Z,1.15
2022-11-01T10:34:36.856Z,0.80
2022-11-01T10:37:31.111Z,0.93
2022-11-01T10:40:25.115Z,0.95
2022-11-01T10:43:15.649Z,0.85
2022-11-01T10:46:05.138Z,0.80
2022-11-01T10:48:56.512Z,1.10
2022-11-01T10:51:46.197Z,0.57
2022-11-01T10:54:36.198Z,0.75
2022-11-01T10:57:31.765Z,1.00
2022-11-01T11:00:21.510Z,0.95
2022-11-01T11:03:22.186Z,0.70
2022-11-01T11:06:13.504Z,0.67
2022-11-01T11:09:01.553Z,0.95
2022-11-01T11:11:50.694Z,0.68
2022-11-01T11:14:42.298Z,0.73
2022-11-01T11:17:32.625Z,1.02
2022-11-01T11:20:23.367Z,1.30
2022-11-01T11:23:13.365Z,0.98
2022-11-01T11:26:06.025Z,0.80
2022-11-01T11:28:57.266Z,0.80
2022-11-01T11:31:45.966Z,0.70
2022-11-01T11:34:36.020Z,1.47
2022-11-01T11:37:25.465Z,0.90
2022-11-01T11:40:20.466Z,1.20
2022-11-01T11:43:23.218Z,1.00
2022-11-01T11:46:21.058Z,0.63
2022-11-01T11:49:27.743Z,1.00
2022-11-01T11:52:20.410Z,0.90
2022-11-01T11:55:35.828Z,0.98
2022-11-01T11:58:29.100Z,1.10
2022-11-01T12:01:22.306Z,0.98
2022-11-01T12:04:16.362Z,0.90
2022-11-01T12:07:06.957Z,1.48
2022-11-01T12:09:55.379Z,0.70
2022-11-01T12:12:53.455Z,1.00
2022-11-01T12:15:41.582Z,1.10
2022-11-01T12:18:29.452Z,1.27
2022-11-01T12:21:22.481Z,0.88
2022-11-01T12:24:23.872Z,0.80
2022-11-01T12:27:15.535Z,1.13
2022-11-01T12:30:08.382Z,1.33
2022-11-01T12:32:57.836Z,1.13
2022-11-01T12:35:47.289Z,0.82
2022-11-01T12:38:44.415Z,0.93
2022-11-01T12:41:37.734Z,1.50
2022-11-01T12:44:33.569Z,1.20
2022-11-01T12:47:26.109Z,1.60
2022-11-01T12:50:20.509Z,1.35
2022-11-01T12:53:14.614Z,1.27
2022-11-01T12:56:03.544Z,0.98
2022-11-01T12:58:53.999Z,1.25
2022-11-01T13:01:52.780Z,1.47
2022-11-01T13:04:46.464Z,0.90
2022-11-01T13:07:45.289Z,0.80
2022-11-01T13:10:38.389Z,0.85
2022-11-01T13:13:35.379Z,0.70
2022-11-01T13:16:30.566Z,1.03
2022-11-01T13:19:24.880Z,1.10
2022-11-01T13:22:20.129Z,1.30
2022-11-01T13:25:14.901Z,1.00
2022-11-01T13:28:12.501Z,1.15
2022-11-01T13:31:06.432Z,1.20
2022-11-01T13:34:00.247Z,0.85
2022-11-01T13:36:58.620Z,1.13
2022-11-01T13:39:59.712Z,1.10
2022-11-01T13:42:51.942Z,1.30
2022-11-01T13:46:03.482Z,1.00
2022-11-01T13:49:14.993Z,0.85
2022-11-01T13:52:10.258Z,0.90
2022-11-01T13:55:05.376Z,0.80
2022-11-01T13:57:54.144Z,1.38
2022-11-01T14:00:44.705Z,0.80
2022-11-01T14:03:33.156Z,0.80
2022-11-01T14:06:31.707Z,0.90
2022-11-01T14:09:30.788Z,1.02
2022-11-01T14:12:43.318Z,0.85
2022-11-01T14:15:36.523Z,1.10
2022-11-01T14:18:23.746Z,1.10
2022-11-01T14:21:28.791Z,1.05
2022-11-01T14:24:30.692Z,1.30
2022-11-01T14:27:33.887Z,1.13
2022-11-01T14:30:23.729Z,1.47
2022-11-01T14:33:15.708Z,1.00
2022-11-01T14:36:05.704Z,0.98
2022-11-01T14:38:57.953Z,1.00
2022-11-01T14:41:52.356Z,1.17
2022-11-01T14:44:50.422Z,0.70
2022-11-01T14:47:41.065Z,1.17
2022-11-01T14:50:33.396Z,1.00
2022-11-01T14:53:27.988Z,1.33
2022-11-01T14:56:17.505Z,1.17
2022-11-01T14:59:20.583Z,0.83
2022-11-01T15:02:09.136Z,1.17
2022-11-01T15:05:00.300Z,1.30
2022-11-01T15:07:52.314Z,1.00
2022-11-01T15:10:42.358Z,0.70
2022-11-01T15:13:32.474Z,1.30
2022-11-01T15:16:23.911Z,1.13
2022-11-01T15:19:17.732Z,0.95
2022-11-01T15:22:06.796Z,1.40
2022-11-01T15:24:58.328Z,1.20
2022-11-01T15:27:48.349Z,0.87
2022-11-01T15:30:36.920Z,1.10
2022-11-01T15:33:28.340Z,0.80
2022-11-01T15:36:22.426Z,1.15
2022-11-01T15:39:19.284Z,0.70
2022-11-01T15:42:14.929Z,0.90
2022-11-01T15:45:18.935Z,0.80
2022-11-01T15:48:11.142Z,1.00
2022-11-01T15:51:03.484Z,0.80
2022-11-01T15:53:57.794Z,1.30
2022-11-01T15:56:50.281Z,1.30
2022-11-01T15:59:47.003Z,1.30
2022-11-01T16:02:42.482Z,1.30
2022-11-01T16:05:34.350Z,1.20
2022-11-01T16:08:31.325Z,1.08
2022-11-01T16:11:20.852Z,1.17
2022-11-01T16:14:25.634Z,1.58
2022-11-01T16:17:32.906Z,1.25
2022-11-01T16:20:30.260Z,0.77
2022-11-01T16:23:28.791Z,1.77
2022-11-01T16:26:16.743Z,1.70
2022-11-01T16:29:03.911Z,1.33
2022-11-01T16:32:09.480Z,2.22
2022-11-01T16:35:00.315Z,1.98
2022-11-01T16:37:48.024Z,1.83
2022-11-01T16:40:39.008Z,1.40
2022-11-01T16:43:28.463Z,1.70
2022-11-01T16:46:16.062Z,1.55
2022-11-01T16:49:17.711Z,1.80
2022-11-01T16:52:11.742Z,1.90
2022-11-01T16:57:50.491Z,1.60
2022-11-01T17:00:38.880Z,1.90
2022-11-01T17:03:26.565Z,3.25
2022-11-01T17:06:14.997Z,2.17
2022-11-01T17:09:02.573Z,1.90
2022-11-01T17:11:53.435Z,2.45
2022-11-01T17:14:43.076Z,2.65
2022-11-01T17:17:31.766Z,1.98
2022-11-01T17:20:23.663Z,2.90
2022-11-01T17:23:16.952Z,2.40
2022-11-01T17:26:06.358Z,2.30
2022-11-01T17:28:53.880Z,2.17
2022-11-01T17:31:42.671Z,2.50
2022-11-01T17:34:30.094Z,2.40
2022-11-01T17:37:18.478Z,2.87
2022-11-01T17:40:18.572Z,3.67
2022-11-01T17:43:06.280Z,3.25
2022-11-01T17:45:54.890Z,3.25
2022-11-01T17:48:44.092Z,2.35
2022-11-01T17:51:32.321Z,2.20
2022-11-01T17:54:20.204Z,2.10
2022-11-01T17:57:07.436Z,1.65
2022-11-01T17:59:56.328Z,2.00
2022-11-01T18:02:44.259Z,2.00
2022-11-01T18:05:33.677Z,2.27
2022-11-01T18:08:21.889Z,2.22
2022-11-01T18:11:15.071Z,2.55
2022-11-01T18:14:07.468Z,1.77
2022-11-01T18:17:02.051Z,2.17
2022-11-01T18:19:58.067Z,3.00
2022-11-01T18:22:55.691Z,2.10
2022-11-01T18:25:46.047Z,1.95
2022-11-01T18:28:35.294Z,2.28
2022-11-01T18:31:26.917Z,1.95
2022-11-01T18:34:22.517Z,1.50
2022-11-01T18:37:21.445Z,1.73
2022-11-01T18:40:17.917Z,1.48
2022-11-01T18:43:09.022Z,1.40
2022-11-01T18:46:24.353Z,1.10
2022-11-01T18:49:11.851Z,1.97
2022-11-01T18:51:59.651Z,1.58
2022-11-01T18:54:55.183Z,1.15
2022-11-01T18:57:44.485Z,0.93
2022-11-01T19:00:31.695Z,1.05
2022-11-01T19:03:23.970Z,1.50
2022-11-01T19:06:19.849Z,0.90
2022-11-01T19:09:21.880Z,0.90
2022-11-01T19:12:16.806Z,1.05
2022-11-01T19:15:19.566Z,0.88
2022-11-01T19:18:19.677Z,0.77
2022-11-01T19:21:15.298Z,0.70
2022-11-01T19:24:10.162Z,1.10
2022-11-01T19:26:59.378Z,0.68
2022-11-01T19:29:47.221Z,1.30
2022-11-01T19:32:36.497Z,1.23
2022-11-01T19:35:24.861Z,1.50
2022-11-01T19:38:16.467Z,1.95
2022-11-01T19:41:04.223Z,1.63
2022-11-01T19:43:54.894Z,1.55
2022-11-01T19:46:42.909Z,1.83
2022-11-01T19:49:31.908Z,1.65
2022-11-01T19:52:27.210Z,1.05
2022-11-01T19:55:38.404Z,1.20
2022-11-01T19:58:30.001Z,1.08
2022-11-01T20:01:41.156Z,1.13
2022-11-01T20:04:32.629Z,0.80
2022-11-01T20:07:26.778Z,0.90
2022-11-01T20:10:16.074Z,0.82
2022-11-01T20:13:04.614Z,0.68
2022-11-01T20:15:54.469Z,0.67
2022-11-01T20:18:42.625Z,0.90
2022-11-01T20:21:31.680Z,0.90
2022-11-01T20:24:20.785Z,0.60
2022-11-01T20:27:09.652Z,1.60
2022-11-01T20:29:57.327Z,1.47
2022-11-01T20:32:45.205Z,1.10
2022-11-01T20:35:33.079Z,0.93
2022-11-01T20:38:22.831Z,0.70
2022-11-01T20:41:11.154Z,1.20
2022-11-01T20:43:59.359Z,0.90
2022-11-01T20:46:47.549Z,0.80
2022-11-01T20:49:36.028Z,1.05
2022-11-01T20:52:40.015Z,0.80
2022-11-01T20:55:29.427Z,0.90
2022-11-01T20:58:16.742Z,1.47
2022-11-01T21:01:04.128Z,0.90
2022-11-01T21:03:53.446Z,0.60
2022-11-01T21:06:40.505Z,0.95
2022-11-01T21:09:32.376Z,0.93
2022-11-01T21:12:39.892Z,1.00
2022-11-01T21:15:38.511Z,1.00
2022-11-01T21:18:38.044Z,0.82
2022-11-01T21:21:32.241Z,0.98
2022-11-01T21:24:39.220Z,0.77
2022-11-01T21:30:25.013Z,0.93
2022-11-01T21:33:32.111Z,0.82
2022-11-01T21:36:29.028Z,1.10
2022-11-01T21:39:20.676Z,0.90
2022-11-01T21:42:32.082Z,1.00
2022-11-01T21:45:30.719Z,1.17
2022-11-01T21:48:28.118Z,1.10
2022-11-01T21:51:15.994Z,0.90
2022-11-01T21:54:04.689Z,1.02
2022-11-01T21:56:52.134Z,0.70
2022-11-01T21:59:41.607Z,1.20
2022-11-01T22:02:28.985Z,0.90
2022-11-01T22:05:16.824Z,1.20
2022-11-01T22:08:04.270Z,1.60
2022-11-01T22:10:51.436Z,0.80
2022-11-01T22:13:39.395Z,0.95
2022-11-01T22:16:28.505Z,0.80
2022-11-01T22:19:16.129Z,1.23
2022-11-01T22:22:03.557Z,1.20
2022-11-01T22:24:50.776Z,1.00
2022-11-01T22:27:38.490Z,1.20
2022-11-01T22:30:25.919Z,1.23
2022-11-01T22:33:15.298Z,1.10
2022-11-01T22:36:03.213Z,0.82
2022-11-01T22:38:50.692Z,1.50
2022-11-01T22:41:40.352Z,0.88
2022-11-01T22:44:31.949Z,1.13
2022-11-01T22:47:25.734Z,1.00
2022-11-01T22:50:19.928Z,0.85
2022-11-01T22:53:12.499Z,1.13
2022-11-01T22:56:00.095Z,0.98
2022-11-01T22:58:47.551Z,0.90
2022-11-01T23:01:34.880Z,0.75
2022-11-01T23:04:23.555Z,0.90
2022-11-01T23:07:24.248Z,1.67
2022-11-01T23:10:24.431Z,0.80
2022-11-01T23:13:37.760Z,0.80
2022-11-01T23:16:28.708Z,0.80
2022-11-01T23:19:17.011Z,1.13
2022-11-01T23:22:04.521Z,0.70
2022-11-01T23:24:54.625Z,1.00
2022-11-01T23:27:44.686Z,1.08
2022-11-01T23:30:32.319Z,1.33
2022-11-01T23:33:21.673Z,0.77
2022-11-01T23:36:17.328Z,1.13
2022-11-01T23:39:09.146Z,0.70
2022-11-01T23:41:57.788Z,1.00
2022-11-01T23:44:45.584Z,0.73
2022-11-01T23:47:38.220Z,0.80
2022-11-01T23:50:30.453Z,0.77
2022-11-01T23:53:18.721Z,0.90
2022-11-01T23:56:08.508Z,0.80
2022-11-01T23:59:03.948Z,0.88
